sensor_id;sensor_type;location;lat;lon;timestamp;P1;durP1;ratioP1;P2;durP2;ratioP2
28086;SDS011;15392;48.912;8.380;2024-01-15T00:01:22;14.40;;;13.00;;
28086;SDS011;15392;48.912;8.380;2024-01-15T00:04:09;12.85;;;11.57;;
28086;SDS011;15392;48.912;8.380;2024-01-15T00:06:55;13.27;;;12.00;;
28086;SDS011;15392;48.912;8.380;2024-01-15T00:09:42;15.55;;;13.95;;
28086;SDS011;15392;48.912;8.380;2024-01-15T00:12:28;15.23;;;13.63;;
28086;SDS011;15392;48.912;8.380;2024-01-15T00:15:14;14.73;;;13.23;;
28086;SDS011;15392;48.912;8.380;2024-01-15T00:18:00;14.27;;;12.90;;
28086;SDS011;15392;48.912;8.380;2024-01-15T00:20:46;14.05;;;12.75;;
28086;SDS011;15392;48.912;8.380;2024-01-15T00:23:32;12.38;;;11.07;;
28086;SDS011;15392;48.912;8.380;2024-01-15T00:26:18;14.35;;;12.95;;
28086;SDS011;15392;48.912;8.380;2024-01-15T00:29:06;13.52;;;12.23;;
28086;SDS011;15392;48.912;8.380;2024-01-15T00:31:53;12.98;;;11.45;;
28086;SDS011;15392;48.912;8.380;2024-01-15T00:34:39;13.32;;;12.02;;
28086;SDS011;15392;48.912;8.380;2024-01-15T00:37:25;13.05;;;11.77;;
28086;SDS011;15392;48.912;8.380;2024-01-15T00:40:11;13.80;;;12.52;;
28086;SDS011;15392;48.912;8.380;2024-01-15T00:43:00;13.85;;;12.45;;
28086;SDS011;15392;48.912;8.380;2024-01-15T00:45:47;14.43;;;12.98;;
28086;SDS011;15392;48.912;8.380;2024-01-15T00:48:33;13.63;;;12.23;;
28086;SDS011;15392;48.912;8.380;2024-01-15T00:51:19;14.88;;;13.38;;
28086;SDS011;15392;48.912;8.380;2024-01-15T00:54:06;14.25;;;12.85;;
28086;SDS011;15392;48.912;8.380;2024-01-15T00:56:52;15.20;;;13.60;;
28086;SDS011;15392;48.912;8.380;2024-01-15T00:59:38;15.15;;;13.45;;
28086;SDS011;15392;48.912;8.380;2024-01-15T01:02:25;15.15;;;13.65;;
28086;SDS011;15392;48.912;8.380;2024-01-15T01:05:11;14.73;;;13.30;;
28086;SDS011;15392;48.912;8.380;2024-01-15T01:07:58;13.90;;;12.52;;
28086;SDS011;15392;48.912;8.380;2024-01-15T01:10:44;17.25;;;15.45;;
28086;SDS011;15392;48.912;8.380;2024-01-15T01:13:30;17.33;;;15.60;;
28086;SDS011;15392;48.912;8.380;2024-01-15T01:16:16;16.25;;;14.52;;
28086;SDS011;15392;48.912;8.380;2024-01-15T01:19:02;14.35;;;12.93;;
28086;SDS011;15392;48.912;8.380;2024-01-15T01:21:48;14.88;;;13.38;;
28086;SDS011;15392;48.912;8.380;2024-01-15T01:24:36;16.02;;;14.43;;
28086;SDS011;15392;48.912;8.380;2024-01-15T01:27:22;15.18;;;13.57;;
28086;SDS011;15392;48.912;8.380;2024-01-15T01:30:08;16.38;;;14.68;;
28086;SDS011;15392;48.912;8.380;2024-01-15T01:32:54;16.58;;;14.95;;
28086;SDS011;15392;48.912;8.380;2024-01-15T01:35:40;18.45;;;16.40;;
28086;SDS011;15392;48.912;8.380;2024-01-15T01:38:26;17.73;;;15.88;;
28086;SDS011;15392;48.912;8.380;2024-01-15T01:41:12;18.90;;;16.90;;
28086;SDS011;15392;48.912;8.380;2024-01-15T01:43:58;16.17;;;14.57;;
28086;SDS011;15392;48.912;8.380;2024-01-15T01:46:44;16.83;;;15.13;;
28086;SDS011;15392;48.912;8.380;2024-01-15T01:49:31;18.85;;;16.25;;
28086;SDS011;15392;48.912;8.380;2024-01-15T01:52:17;18.90;;;16.48;;
28086;SDS011;15392;48.912;8.380;2024-01-15T01:55:04;16.25;;;14.60;;
28086;SDS011;15392;48.912;8.380;2024-01-15T01:57:52;16.63;;;14.98;;
28086;SDS011;15392;48.912;8.380;2024-01-15T02:00:40;17.38;;;15.50;;
28086;SDS011;15392;48.912;8.380;2024-01-15T02:03:26;15.65;;;13.95;;
28086;SDS011;15392;48.912;8.380;2024-01-15T02:06:13;14.68;;;13.20;;
28086;SDS011;15392;48.912;8.380;2024-01-15T02:09:00;16.30;;;14.55;;
28086;SDS011;15392;48.912;8.380;2024-01-15T02:11:47;14.88;;;13.38;;
28086;SDS011;15392;48.912;8.380;2024-01-15T02:14:33;14.70;;;13.32;;
28086;SDS011;15392;48.912;8.380;2024-01-15T02:17:19;14.88;;;13.43;;
28086;SDS011;15392;48.912;8.380;2024-01-15T02:20:05;14.90;;;13.38;;
28086;SDS011;15392;48.912;8.380;2024-01-15T02:22:52;14.98;;;13.48;;
28086;SDS011;15392;48.912;8.380;2024-01-15T02:25:45;15.10;;;13.48;;
28086;SDS011;15392;48.912;8.380;2024-01-15T02:28:32;13.82;;;12.43;;
28086;SDS011;15392;48.912;8.380;2024-01-15T02:31:19;15.93;;;14.23;;
28086;SDS011;15392;48.912;8.380;2024-01-15T02:34:05;14.88;;;13.38;;
28086;SDS011;15392;48.912;8.380;2024-01-15T02:36:51;15.27;;;13.77;;
28086;SDS011;15392;48.912;8.380;2024-01-15T02:39:37;16.27;;;14.63;;
28086;SDS011;15392;48.912;8.380;2024-01-15T02:42:23;15.65;;;14.00;;
28086;SDS011;15392;48.912;8.380;2024-01-15T02:45:09;16.05;;;14.43;;
28086;SDS011;15392;48.912;8.380;2024-01-15T02:47:55;14.68;;;13.18;;
28086;SDS011;15392;48.912;8.380;2024-01-15T02:50:41;17.95;;;16.05;;
28086;SDS011;15392;48.912;8.380;2024-01-15T02:53:27;16.55;;;14.75;;
28086;SDS011;15392;48.912;8.380;2024-01-15T02:56:13;16.23;;;14.38;;
28086;SDS011;15392;48.912;8.380;2024-01-15T02:58:59;15.23;;;13.63;;
28086;SDS011;15392;48.912;8.380;2024-01-15T03:01:45;14.43;;;12.95;;
28086;SDS011;15392;48.912;8.380;2024-01-15T03:04:33;15.98;;;14.38;;
28086;SDS011;15392;48.912;8.380;2024-01-15T03:07:19;15.70;;;14.10;;
28086;SDS011;15392;48.912;8.380;2024-01-15T03:10:05;14.20;;;12.80;;
28086;SDS011;15392;48.912;8.380;2024-01-15T03:12:52;15.48;;;13.85;;
28086;SDS011;15392;48.912;8.380;2024-01-15T03:15:39;13.80;;;12.43;;
28086;SDS011;15392;48.912;8.380;2024-01-15T03:18:25;15.57;;;14.00;;
28086;SDS011;15392;48.912;8.380;2024-01-15T03:21:11;15.85;;;14.23;;
28086;SDS011;15392;48.912;8.380;2024-01-15T03:23:57;16.80;;;14.95;;
28086;SDS011;15392;48.912;8.380;2024-01-15T03:26:43;13.55;;;12.25;;
28086;SDS011;15392;48.912;8.380;2024-01-15T03:29:29;12.75;;;11.55;;
28086;SDS011;15392;48.912;8.380;2024-01-15T03:32:15;12.93;;;11.63;;
28086;SDS011;15392;48.912;8.380;2024-01-15T03:35:01;13.77;;;12.38;;
28086;SDS011;15392;48.912;8.380;2024-01-15T03:37:47;14.40;;;12.90;;
28086;SDS011;15392;48.912;8.380;2024-01-15T03:40:33;14.13;;;12.73;;
28086;SDS011;15392;48.912;8.380;2024-01-15T03:43:19;13.50;;;12.20;;
28086;SDS011;15392;48.912;8.380;2024-01-15T03:46:05;12.85;;;11.65;;
28086;SDS011;15392;48.912;8.380;2024-01-15T03:48:52;12.95;;;11.68;;
28086;SDS011;15392;48.912;8.380;2024-01-15T03:51:38;13.77;;;12.38;;
28086;SDS011;15392;48.912;8.380;2024-01-15T03:54:24;13.80;;;12.43;;
28086;SDS011;15392;48.912;8.380;2024-01-15T03:57:11;12.73;;;11.52;;
28086;SDS011;15392;48.912;8.380;2024-01-15T03:59:57;11.65;;;10.55;;
28086;SDS011;15392;48.912;8.380;2024-01-15T04:02:43;12.25;;;10.95;;
28086;SDS011;15392;48.912;8.380;2024-01-15T04:05:29;12.70;;;11.50;;
28086;SDS011;15392;48.912;8.380;2024-01-15T04:08:15;11.77;;;10.77;;
28086;SDS011;15392;48.912;8.380;2024-01-15T04:11:01;12.43;;;11.25;;
28086;SDS011;15392;48.912;8.380;2024-01-15T04:13:48;12.10;;;10.90;;
28086;SDS011;15392;48.912;8.380;2024-01-15T04:16:34;12.77;;;11.43;;
28086;SDS011;15392;48.912;8.380;2024-01-15T04:19:20;13.13;;;11.82;;
28086;SDS011;15392;48.912;8.380;2024-01-15T04:22:06;12.65;;;11.45;;
28086;SDS011;15392;48.912;8.380;2024-01-15T04:24:52;13.48;;;12.10;;
28086;SDS011;15392;48.912;8.380;2024-01-15T04:27:38;13.30;;;11.93;;
28086;SDS011;15392;48.912;8.380;2024-01-15T04:30:24;12.82;;;11.63;;
28086;SDS011;15392;48.912;8.380;2024-01-15T04:33:10;13.68;;;12.32;;
28086;SDS011;15392;48.912;8.380;2024-01-15T04:35:56;12.88;;;11.60;;
28086;SDS011;15392;48.912;8.380;2024-01-15T04:38:42;11.60;;;10.55;;
28086;SDS011;15392;48.912;8.380;2024-01-15T04:41:28;12.32;;;11.23;;
28086;SDS011;15392;48.912;8.380;2024-01-15T04:44:14;11.68;;;10.57;;
28086;SDS011;15392;48.912;8.380;2024-01-15T04:47:00;12.85;;;11.73;;
28086;SDS011;15392;48.912;8.380;2024-01-15T04:49:46;13.55;;;12.25;;
28086;SDS011;15392;48.912;8.380;2024-01-15T04:52:34;12.10;;;10.93;;
28086;SDS011;15392;48.912;8.380;2024-01-15T04:55:20;11.35;;;10.25;;
28086;SDS011;15392;48.912;8.380;2024-01-15T04:58:06;11.45;;;10.43;;
28086;SDS011;15392;48.912;8.380;2024-01-15T05:00:52;12.43;;;11.18;;
28086;SDS011;15392;48.912;8.380;2024-01-15T05:03:39;13.25;;;11.95;;
28086;SDS011;15392;48.912;8.380;2024-01-15T05:06:25;11.93;;;10.82;;
28086;SDS011;15392;48.912;8.380;2024-01-15T05:09:12;11.70;;;10.60;;
28086;SDS011;15392;48.912;8.380;2024-01-15T05:11:58;12.77;;;11.63;;
28086;SDS011;15392;48.912;8.380;2024-01-15T05:14:44;12.75;;;11.55;;
28086;SDS011;15392;48.912;8.380;2024-01-15T05:17:30;12.70;;;11.40;;
28086;SDS011;15392;48.912;8.380;2024-01-15T05:20:17;11.35;;;10.35;;
28086;SDS011;15392;48.912;8.380;2024-01-15T05:23:03;11.77;;;10.70;;
28086;SDS011;15392;48.912;8.380;2024-01-15T05:25:49;10.88;;;9.95;;
28086;SDS011;15392;48.912;8.380;2024-01-15T05:28:35;11.10;;;10.10;;
28086;SDS011;15392;48.912;8.380;2024-01-15T05:31:21;10.75;;;9.73;;
28086;SDS011;15392;48.912;8.380;2024-01-15T05:34:07;12.57;;;11.38;;
28086;SDS011;15392;48.912;8.380;2024-01-15T05:36:53;20.23;;;17.45;;
28086;SDS011;15392;48.912;8.380;2024-01-15T05:39:39;20.33;;;17.00;;
28086;SDS011;15392;48.912;8.380;2024-01-15T05:42:25;15.20;;;13.68;;
28086;SDS011;15392;48.912;8.380;2024-01-15T05:45:12;15.63;;;14.00;;
28086;SDS011;15392;48.912;8.380;2024-01-15T05:47:58;12.75;;;11.45;;
28086;SDS011;15392;48.912;8.380;2024-01-15T05:50:44;12.52;;;11.43;;
28086;SDS011;15392;48.912;8.380;2024-01-15T05:53:30;11.65;;;10.65;;
28086;SDS011;15392;48.912;8.380;2024-01-15T05:56:16;13.25;;;12.05;;
28086;SDS011;15392;48.912;8.380;2024-01-15T05:59:02;11.73;;;10.55;;
28086;SDS011;15392;48.912;8.380;2024-01-15T06:01:48;12.68;;;11.43;;
28086;SDS011;15392;48.912;8.380;2024-01-15T06:04:34;12.70;;;11.40;;
28086;SDS011;15392;48.912;8.380;2024-01-15T06:07:20;13.88;;;12.57;;
28086;SDS011;15392;48.912;8.380;2024-01-15T06:10:08;13.65;;;12.35;;
28086;SDS011;15392;48.912;8.380;2024-01-15T06:12:54;15.35;;;13.95;;
28086;SDS011;15392;48.912;8.380;2024-01-15T06:15:40;14.50;;;13.10;;
28086;SDS011;15392;48.912;8.380;2024-01-15T06:18:26;13.13;;;11.93;;
28086;SDS011;15392;48.912;8.380;2024-01-15T06:21:12;14.10;;;12.80;;
28086;SDS011;15392;48.912;8.380;2024-01-15T06:23:59;13.70;;;12.45;;
28086;SDS011;15392;48.912;8.380;2024-01-15T06:26:46;12.85;;;11.75;;
28086;SDS011;15392;48.912;8.380;2024-01-15T06:29:32;12.30;;;11.18;;
28086;SDS011;15392;48.912;8.380;2024-01-15T06:32:19;11.82;;;10.82;;
28086;SDS011;15392;48.912;8.380;2024-01-15T06:35:05;11.40;;;10.40;;
28086;SDS011;15392;48.912;8.380;2024-01-15T06:37:51;11.43;;;10.35;;
28086;SDS011;15392;48.912;8.380;2024-01-15T06:40:37;10.50;;;9.70;;
28086;SDS011;15392;48.912;8.380;2024-01-15T06:43:25;12.02;;;10.93;;
28086;SDS011;15392;48.912;8.380;2024-01-15T06:46:11;12.35;;;11.23;;
28086;SDS011;15392;48.912;8.380;2024-01-15T06:48:57;10.98;;;10.10;;
28086;SDS011;15392;48.912;8.380;2024-01-15T06:51:43;11.05;;;10.05;;
28086;SDS011;15392;48.912;8.380;2024-01-15T06:54:29;12.27;;;11.18;;
28086;SDS011;15392;48.912;8.380;2024-01-15T06:57:15;10.23;;;9.48;;
28086;SDS011;15392;48.912;8.380;2024-01-15T07:00:01;10.35;;;9.45;;
28086;SDS011;15392;48.912;8.380;2024-01-15T07:02:52;9.70;;;8.90;;
28086;SDS011;15392;48.912;8.380;2024-01-15T07:05:39;10.40;;;9.50;;
28086;SDS011;15392;48.912;8.380;2024-01-15T07:08:25;9.95;;;9.05;;
28086;SDS011;15392;48.912;8.380;2024-01-15T07:11:11;9.80;;;9.00;;
28086;SDS011;15392;48.912;8.380;2024-01-15T07:13:57;8.77;;;8.18;;
28086;SDS011;15392;48.912;8.380;2024-01-15T07:16:43;9.45;;;8.68;;
28086;SDS011;15392;48.912;8.380;2024-01-15T07:19:29;8.77;;;8.07;;
28086;SDS011;15392;48.912;8.380;2024-01-15T07:22:15;8.77;;;8.15;;
28086;SDS011;15392;48.912;8.380;2024-01-15T07:25:02;9.48;;;8.70;;
28086;SDS011;15392;48.912;8.380;2024-01-15T07:27:50;10.60;;;9.70;;
28086;SDS011;15392;48.912;8.380;2024-01-15T07:30:36;11.75;;;10.75;;
28086;SDS011;15392;48.912;8.380;2024-01-15T07:33:24;14.25;;;12.95;;
28086;SDS011;15392;48.912;8.380;2024-01-15T07:36:11;15.15;;;13.75;;
28086;SDS011;15392;48.912;8.380;2024-01-15T07:38:57;13.60;;;12.30;;
28086;SDS011;15392;48.912;8.380;2024-01-15T07:41:43;12.32;;;11.23;;
28086;SDS011;15392;48.912;8.380;2024-01-15T07:44:32;13.50;;;12.27;;
28086;SDS011;15392;48.912;8.380;2024-01-15T07:47:18;12.48;;;11.45;;
28086;SDS011;15392;48.912;8.380;2024-01-15T07:50:05;11.55;;;10.45;;
28086;SDS011;15392;48.912;8.380;2024-01-15T07:52:51;11.82;;;10.82;;
28086;SDS011;15392;48.912;8.380;2024-01-15T07:55:38;12.88;;;11.65;;
28086;SDS011;15392;48.912;8.380;2024-01-15T07:58:24;11.77;;;10.77;;
28086;SDS011;15392;48.912;8.380;2024-01-15T08:01:10;11.63;;;10.63;;
28086;SDS011;15392;48.912;8.380;2024-01-15T08:03:56;11.23;;;10.32;;
28086;SDS011;15392;48.912;8.380;2024-01-15T08:06:42;11.80;;;10.68;;
28086;SDS011;15392;48.912;8.380;2024-01-15T08:09:28;12.55;;;11.35;;
28086;SDS011;15392;48.912;8.380;2024-01-15T08:12:15;11.43;;;10.38;;
28086;SDS011;15392;48.912;8.380;2024-01-15T08:15:01;12.00;;;11.00;;
28086;SDS011;15392;48.912;8.380;2024-01-15T08:17:47;11.45;;;10.45;;
28086;SDS011;15392;48.912;8.380;2024-01-15T08:20:33;10.95;;;10.02;;
28086;SDS011;15392;48.912;8.380;2024-01-15T08:23:19;10.18;;;9.32;;
28086;SDS011;15392;48.912;8.380;2024-01-15T08:26:05;10.40;;;9.60;;
28086;SDS011;15392;48.912;8.380;2024-01-15T08:28:51;11.25;;;10.25;;
28086;SDS011;15392;48.912;8.380;2024-01-15T08:31:37;10.32;;;9.43;;
28086;SDS011;15392;48.912;8.380;2024-01-15T08:34:23;10.75;;;9.82;;
28086;SDS011;15392;48.912;8.380;2024-01-15T08:37:09;12.07;;;10.98;;
28086;SDS011;15392;48.912;8.380;2024-01-15T08:39:55;12.68;;;11.48;;
28086;SDS011;15392;48.912;8.380;2024-01-15T08:42:42;12.05;;;10.93;;
28086;SDS011;15392;48.912;8.380;2024-01-15T08:45:28;12.50;;;11.43;;
28086;SDS011;15392;48.912;8.380;2024-01-15T08:48:14;11.23;;;10.18;;
28086;SDS011;15392;48.912;8.380;2024-01-15T08:51:00;11.25;;;10.15;;
28086;SDS011;15392;48.912;8.380;2024-01-15T08:53:46;13.82;;;12.52;;
28086;SDS011;15392;48.912;8.380;2024-01-15T08:56:33;13.05;;;11.55;;
28086;SDS011;15392;48.912;8.380;2024-01-15T08:59:19;15.63;;;13.95;;
28086;SDS011;15392;48.912;8.380;2024-01-15T09:02:09;15.15;;;13.55;;
28086;SDS011;15392;48.912;8.380;2024-01-15T09:04:56;11.73;;;10.65;;
28086;SDS011;15392;48.912;8.380;2024-01-15T09:07:42;11.25;;;10.25;;
28086;SDS011;15392;48.912;8.380;2024-01-15T09:10:28;13.00;;;11.80;;
28086;SDS011;15392;48.912;8.380;2024-01-15T09:13:14;11.00;;;10.00;;
28086;SDS011;15392;48.912;8.380;2024-01-15T09:16:00;12.23;;;11.13;;
28086;SDS011;15392;48.912;8.380;2024-01-15T09:18:46;10.68;;;9.80;;
28086;SDS011;15392;48.912;8.380;2024-01-15T09:21:32;10.02;;;9.23;;
28086;SDS011;15392;48.912;8.380;2024-01-15T09:24:18;11.20;;;10.20;;
28086;SDS011;15392;48.912;8.380;2024-01-15T09:27:04;9.13;;;8.43;;
28086;SDS011;15392;48.912;8.380;2024-01-15T09:29:50;10.23;;;9.32;;
28086;SDS011;15392;48.912;8.380;2024-01-15T09:32:40;8.63;;;8.00;;
28086;SDS011;15392;48.912;8.380;2024-01-15T09:35:26;8.70;;;8.02;;
28086;SDS011;15392;48.912;8.380;2024-01-15T09:38:12;9.00;;;8.27;;
28086;SDS011;15392;48.912;8.380;2024-01-15T09:40:58;9.70;;;8.90;;
28086;SDS011;15392;48.912;8.380;2024-01-15T09:43:44;9.75;;;8.95;;
28086;SDS011;15392;48.912;8.380;2024-01-15T09:46:31;11.27;;;10.27;;
28086;SDS011;15392;48.912;8.380;2024-01-15T09:49:18;10.82;;;9.93;;
28086;SDS011;15392;48.912;8.380;2024-01-15T09:52:05;10.10;;;9.30;;
28086;SDS011;15392;48.912;8.380;2024-01-15T09:54:52;9.07;;;8.35;;
28086;SDS011;15392;48.912;8.380;2024-01-15T09:57:39;8.05;;;7.43;;
28086;SDS011;15392;48.912;8.380;2024-01-15T10:00:25;10.27;;;9.35;;
28086;SDS011;15392;48.912;8.380;2024-01-15T10:03:12;10.93;;;9.93;;
28086;SDS011;15392;48.912;8.380;2024-01-15T10:05:59;13.80;;;12.45;;
28086;SDS011;15392;48.912;8.380;2024-01-15T10:08:49;15.35;;;13.75;;
28086;SDS011;15392;48.912;8.380;2024-01-15T10:11:36;12.70;;;11.50;;
28086;SDS011;15392;48.912;8.380;2024-01-15T10:14:22;15.70;;;14.05;;
28086;SDS011;15392;48.912;8.380;2024-01-15T10:17:11;16.77;;;14.85;;
28086;SDS011;15392;48.912;8.380;2024-01-15T10:19:59;16.23;;;14.57;;
28086;SDS011;15392;48.912;8.380;2024-01-15T10:22:46;13.93;;;12.60;;
28086;SDS011;15392;48.912;8.380;2024-01-15T10:25:32;13.35;;;12.13;;
28086;SDS011;15392;48.912;8.380;2024-01-15T10:28:18;12.05;;;10.98;;
28086;SDS011;15392;48.912;8.380;2024-01-15T10:31:06;11.05;;;10.10;;
28086;SDS011;15392;48.912;8.380;2024-01-15T10:33:52;9.60;;;8.85;;
28086;SDS011;15392;48.912;8.380;2024-01-15T10:36:39;10.27;;;9.43;;
28086;SDS011;15392;48.912;8.380;2024-01-15T10:39:26;10.27;;;9.48;;
28086;SDS011;15392;48.912;8.380;2024-01-15T10:42:12;7.85;;;7.28;;
28086;SDS011;15392;48.912;8.380;2024-01-15T10:44:58;8.55;;;7.95;;
28086;SDS011;15392;48.912;8.380;2024-01-15T10:47:44;9.23;;;8.50;;
28086;SDS011;15392;48.912;8.380;2024-01-15T10:50:31;13.95;;;12.75;;
28086;SDS011;15392;48.912;8.380;2024-01-15T10:53:17;12.25;;;11.25;;
28086;SDS011;15392;48.912;8.380;2024-01-15T10:56:04;8.05;;;7.45;;
28086;SDS011;15392;48.912;8.380;2024-01-15T10:58:51;7.28;;;6.72;;
28086;SDS011;15392;48.912;8.380;2024-01-15T11:01:40;6.28;;;5.88;;
28086;SDS011;15392;48.912;8.380;2024-01-15T11:04:28;7.72;;;7.22;;
28086;SDS011;15392;48.912;8.380;2024-01-15T11:07:17;7.97;;;7.38;;
28086;SDS011;15392;48.912;8.380;2024-01-15T11:10:36;7.22;;;6.72;;
28086;SDS011;15392;48.912;8.380;2024-01-15T11:16:17;5.53;;;5.22;;
28086;SDS011;15392;48.912;8.380;2024-01-15T11:19:03;8.13;;;7.53;;
28086;SDS011;15392;48.912;8.380;2024-01-15T11:21:53;7.10;;;6.60;;
28086;SDS011;15392;48.912;8.380;2024-01-15T11:24:39;6.95;;;6.50;;
28086;SDS011;15392;48.912;8.380;2024-01-15T11:27:47;8.48;;;7.85;;
28086;SDS011;15392;48.912;8.380;2024-01-15T11:30:37;7.80;;;7.25;;
28086;SDS011;15392;48.912;8.380;2024-01-15T11:33:33;7.70;;;7.10;;
28086;SDS011;15392;48.912;8.380;2024-01-15T11:36:19;8.52;;;7.93;;
28086;SDS011;15392;48.912;8.380;2024-01-15T11:42:13;8.00;;;7.40;;
28086;SDS011;15392;48.912;8.380;2024-01-15T11:45:01;6.45;;;6.05;;
28086;SDS011;15392;48.912;8.380;2024-01-15T11:51:02;7.28;;;6.78;;
28086;SDS011;15392;48.912;8.380;2024-01-15T11:53:49;7.30;;;6.80;;
28086;SDS011;15392;48.912;8.380;2024-01-15T11:56:40;8.00;;;7.50;;
28086;SDS011;15392;48.912;8.380;2024-01-15T11:59:27;7.68;;;7.18;;
28086;SDS011;15392;48.912;8.380;2024-01-15T12:02:13;6.78;;;6.28;;
28086;SDS011;15392;48.912;8.380;2024-01-15T12:05:00;7.78;;;7.18;;
28086;SDS011;15392;48.912;8.380;2024-01-15T12:07:46;6.95;;;6.45;;
28086;SDS011;15392;48.912;8.380;2024-01-15T12:10:34;5.60;;;5.30;;
28086;SDS011;15392;48.912;8.380;2024-01-15T12:13:20;5.60;;;5.30;;
28086;SDS011;15392;48.912;8.380;2024-01-15T12:16:06;5.53;;;5.22;;
28086;SDS011;15392;48.912;8.380;2024-01-15T12:18:52;6.13;;;5.72;;
28086;SDS011;15392;48.912;8.380;2024-01-15T12:21:39;6.85;;;6.35;;
28086;SDS011;15392;48.912;8.380;2024-01-15T12:24:26;7.00;;;6.50;;
28086;SDS011;15392;48.912;8.380;2024-01-15T12:27:12;6.07;;;5.78;;
28086;SDS011;15392;48.912;8.380;2024-01-15T12:29:59;5.90;;;5.60;;
28086;SDS011;15392;48.912;8.380;2024-01-15T12:32:45;6.80;;;6.40;;
28086;SDS011;15392;48.912;8.380;2024-01-15T12:35:34;6.32;;;5.85;;
28086;SDS011;15392;48.912;8.380;2024-01-15T12:38:20;6.05;;;5.65;;
28086;SDS011;15392;48.912;8.380;2024-01-15T12:44:10;5.40;;;5.10;;
28086;SDS011;15392;48.912;8.380;2024-01-15T12:46:57;5.15;;;4.88;;
28086;SDS011;15392;48.912;8.380;2024-01-15T12:49:46;7.13;;;6.68;;
28086;SDS011;15392;48.912;8.380;2024-01-15T12:52:35;7.85;;;7.25;;
28086;SDS011;15392;48.912;8.380;2024-01-15T12:55:23;7.20;;;6.70;;
28086;SDS011;15392;48.912;8.380;2024-01-15T12:58:09;8.13;;;7.57;;
28086;SDS011;15392;48.912;8.380;2024-01-15T13:00:55;8.43;;;7.82;;
28086;SDS011;15392;48.912;8.380;2024-01-15T13:03:44;6.43;;;6.03;;
28086;SDS011;15392;48.912;8.380;2024-01-15T13:06:38;7.20;;;6.70;;
28086;SDS011;15392;48.912;8.380;2024-01-15T13:09:27;8.32;;;7.72;;
28086;SDS011;15392;48.912;8.380;2024-01-15T13:12:15;8.15;;;7.45;;
28086;SDS011;15392;48.912;8.380;2024-01-15T13:15:01;8.10;;;7.50;;
28086;SDS011;15392;48.912;8.380;2024-01-15T13:17:49;9.90;;;9.02;;
28086;SDS011;15392;48.912;8.380;2024-01-15T13:20:35;8.80;;;8.20;;
28086;SDS011;15392;48.912;8.380;2024-01-15T13:23:21;6.65;;;6.15;;
28086;SDS011;15392;48.912;8.380;2024-01-15T13:26:07;6.28;;;5.88;;
28086;SDS011;15392;48.912;8.380;2024-01-15T13:28:53;5.20;;;4.90;;
28086;SDS011;15392;48.912;8.380;2024-01-15T13:31:39;4.60;;;4.38;;
28086;SDS011;15392;48.912;8.380;2024-01-15T13:34:25;5.55;;;5.20;;
28086;SDS011;15392;48.912;8.380;2024-01-15T13:37:11;5.15;;;4.88;;
28086;SDS011;15392;48.912;8.380;2024-01-15T13:39:57;5.50;;;5.20;;
28086;SDS011;15392;48.912;8.380;2024-01-15T13:42:43;5.70;;;5.40;;
28086;SDS011;15392;48.912;8.380;2024-01-15T13:45:29;5.13;;;4.82;;
28086;SDS011;15392;48.912;8.380;2024-01-15T13:48:15;4.65;;;4.45;;
28086;SDS011;15392;48.912;8.380;2024-01-15T13:51:02;5.28;;;4.97;;
28086;SDS011;15392;48.912;8.380;2024-01-15T13:53:49;5.47;;;5.18;;
28086;SDS011;15392;48.912;8.380;2024-01-15T13:56:38;5.40;;;5.10;;
28086;SDS011;15392;48.912;8.380;2024-01-15T13:59:24;4.20;;;4.00;;
28086;SDS011;15392;48.912;8.380;2024-01-15T14:02:10;5.15;;;4.85;;
28086;SDS011;15392;48.912;8.380;2024-01-15T14:04:56;4.18;;;3.97;;
28086;SDS011;15392;48.912;8.380;2024-01-15T14:07:42;4.85;;;4.55;;
28086;SDS011;15392;48.912;8.380;2024-01-15T14:10:29;4.63;;;4.32;;
28086;SDS011;15392;48.912;8.380;2024-01-15T14:13:15;4.63;;;4.35;;
28086;SDS011;15392;48.912;8.380;2024-01-15T14:16:01;4.05;;;3.85;;
28086;SDS011;15392;48.912;8.380;2024-01-15T14:18:47;4.40;;;4.20;;
28086;SDS011;15392;48.912;8.380;2024-01-15T14:21:33;4.47;;;4.28;;
28086;SDS011;15392;48.912;8.380;2024-01-15T14:24:19;4.07;;;3.88;;
28086;SDS011;15392;48.912;8.380;2024-01-15T14:27:05;3.85;;;3.65;;
28086;SDS011;15392;48.912;8.380;2024-01-15T14:29:52;4.05;;;3.85;;
28086;SDS011;15392;48.912;8.380;2024-01-15T14:32:38;4.72;;;4.43;;
28086;SDS011;15392;48.912;8.380;2024-01-15T14:35:24;4.10;;;3.90;;
28086;SDS011;15392;48.912;8.380;2024-01-15T14:38:10;3.90;;;3.70;;
28086;SDS011;15392;48.912;8.380;2024-01-15T14:40:56;4.00;;;3.80;;
28086;SDS011;15392;48.912;8.380;2024-01-15T14:43:42;3.55;;;3.35;;
28086;SDS011;15392;48.912;8.380;2024-01-15T14:46:30;4.82;;;4.63;;
28086;SDS011;15392;48.912;8.380;2024-01-15T14:49:16;4.28;;;4.07;;
28086;SDS011;15392;48.912;8.380;2024-01-15T14:52:02;4.07;;;3.88;;
28086;SDS011;15392;48.912;8.380;2024-01-15T14:54:49;4.18;;;3.97;;
28086;SDS011;15392;48.912;8.380;2024-01-15T14:57:35;4.30;;;4.10;;
28086;SDS011;15392;48.912;8.380;2024-01-15T15:00:22;4.80;;;4.60;;
28086;SDS011;15392;48.912;8.380;2024-01-15T15:03:08;4.30;;;4.10;;
28086;SDS011;15392;48.912;8.380;2024-01-15T15:05:55;4.70;;;4.40;;
28086;SDS011;15392;48.912;8.380;2024-01-15T15:08:41;4.18;;;3.97;;
28086;SDS011;15392;48.912;8.380;2024-01-15T15:11:27;4.32;;;4.13;;
28086;SDS011;15392;48.912;8.380;2024-01-15T15:14:14;4.00;;;3.80;;
28086;SDS011;15392;48.912;8.380;2024-01-15T15:17:00;3.72;;;3.45;;
28086;SDS011;15392;48.912;8.380;2024-01-15T15:19:46;3.92;;;3.72;;
28086;SDS011;15392;48.912;8.380;2024-01-15T15:22:32;3.47;;;3.30;;
28086;SDS011;15392;48.912;8.380;2024-01-15T15:25:18;6.00;;;5.70;;
28086;SDS011;15392;48.912;8.380;2024-01-15T15:28:05;6.55;;;6.15;;
28086;SDS011;15392;48.912;8.380;2024-01-15T15:30:51;4.95;;;4.72;;
28086;SDS011;15392;48.912;8.380;2024-01-15T15:33:37;4.10;;;3.80;;
28086;SDS011;15392;48.912;8.380;2024-01-15T15:36:23;3.80;;;3.60;;
28086;SDS011;15392;48.912;8.380;2024-01-15T15:39:09;4.15;;;3.95;;
28086;SDS011;15392;48.912;8.380;2024-01-15T15:41:55;3.78;;;3.58;;
28086;SDS011;15392;48.912;8.380;2024-01-15T15:44:41;4.47;;;4.28;;
28086;SDS011;15392;48.912;8.380;2024-01-15T15:47:34;3.78;;;3.58;;
28086;SDS011;15392;48.912;8.380;2024-01-15T15:50:20;4.40;;;4.20;;
28086;SDS011;15392;48.912;8.380;2024-01-15T15:53:07;4.10;;;3.90;;
28086;SDS011;15392;48.912;8.380;2024-01-15T15:55:56;5.13;;;4.93;;
28086;SDS011;15392;48.912;8.380;2024-01-15T15:58:42;6.97;;;6.57;;
28086;SDS011;15392;48.912;8.380;2024-01-15T16:01:28;5.80;;;5.50;;
28086;SDS011;15392;48.912;8.380;2024-01-15T16:04:14;6.55;;;6.15;;
28086;SDS011;15392;48.912;8.380;2024-01-15T16:07:00;4.63;;;4.43;;
28086;SDS011;15392;48.912;8.380;2024-01-15T16:09:46;5.82;;;5.53;;
28086;SDS011;15392;48.912;8.380;2024-01-15T16:12:32;4.82;;;4.63;;
28086;SDS011;15392;48.912;8.380;2024-01-15T16:15:19;4.45;;;4.25;;
28086;SDS011;15392;48.912;8.380;2024-01-15T16:18:07;3.83;;;3.63;;
28086;SDS011;15392;48.912;8.380;2024-01-15T16:20:53;3.60;;;3.40;;
28086;SDS011;15392;48.912;8.380;2024-01-15T16:23:39;3.75;;;3.55;;
28086;SDS011;15392;48.912;8.380;2024-01-15T16:26:25;3.60;;;3.45;;
28086;SDS011;15392;48.912;8.380;2024-01-15T16:29:11;3.80;;;3.60;;
28086;SDS011;15392;48.912;8.380;2024-01-15T16:31:57;3.22;;;3.13;;
28086;SDS011;15392;48.912;8.380;2024-01-15T16:34:43;4.32;;;4.13;;
28086;SDS011;15392;48.912;8.380;2024-01-15T16:37:30;3.72;;;3.53;;
28086;SDS011;15392;48.912;8.380;2024-01-15T16:40:16;3.90;;;3.70;;